Time;durP1;ratioP1;P1;durP2;ratioP2;P2;SDS_P1;SDS_P2;PMS_P1;PMS_P2;Temp;Humidity;BMP_temperature;BMP_pressure;BME280_temperature;BME280_humidity;BME280_pressure;Samples;Min_cycle;Max_cycle;Signal;HPM_P1;HPM_P2
2022/10/15 00:01:50;;;;;;;1.10;0.70;;;18.10;83.20;18.40;96034.00;;;;5053260;28;20292;-85
2022/10/15 00:04:17;;;;;;;0.60;0.60;;;18.10;83.30;18.40;96027.00;;;;5054008;28;20684;-85
2022/10/15 00:06:44;;;;;;;0.77;0.77;;;18.10;83.40;18.40;96035.00;;;;5052637;28;20288;-86
2022/10/15 00:09:12;;;;;;;0.50;0.50;;;18.10;83.50;18.40;96027.00;;;;5050783;28;20224;-85
2022/10/15 00:11:39;;;;;;;1.80;0.90;;;18.10;83.60;18.30;96034.00;;;;5050096;28;20205;-85
2022/10/15 00:14:06;;;;;;;0.97;0.90;;;18.00;83.50;18.30;96023.00;;;;5058920;28;20197;-85
2022/10/15 00:16:34;;;;;;;0.73;0.73;;;18.10;83.50;18.30;96029.00;;;;5052472;28;20203;-84
2022/10/15 00:19:01;;;;;;;0.50;0.50;;;18.10;83.60;18.30;96032.00;;;;5055435;28;20228;-85
2022/10/15 00:21:29;;;;;;;0.97;0.50;;;18.00;83.60;18.30;96022.00;;;;5050064;28;20304;-86
2022/10/15 00:23:57;;;;;;;0.60;0.50;;;18.00;83.80;18.30;96024.00;;;;5044475;28;20231;-87
2022/10/15 00:26:29;;;;;;;1.20;0.50;;;18.00;83.90;18.30;96026.00;;;;5042113;28;20189;-85
2022/10/15 00:28:59;;;;;;;0.50;0.50;;;18.00;84.10;18.20;96018.00;;;;5038414;28;20662;-85
2022/10/15 00:31:28;;;;;;;0.93;0.37;;;18.00;84.00;18.20;96019.00;;;;5037134;28;20218;-84
2022/10/15 00:33:57;;;;;;;0.50;0.50;;;17.90;84.00;18.20;96020.00;;;;5054236;28;20197;-84
2022/10/15 00:36:27;;;;;;;0.53;0.43;;;17.90;83.90;18.20;96012.00;;;;5056335;28;20673;-87
2022/10/15 00:38:55;;;;;;;0.40;0.40;;;17.90;84.00;18.20;96013.00;;;;5052057;28;20201;-84
2022/10/15 00:41:28;;;;;;;0.30;0.30;;;17.90;84.00;18.20;96009.00;;;;5055757;28;20220;-85
2022/10/15 00:43:57;;;;;;;0.60;0.60;;;17.90;84.20;18.20;95999.00;;;;5044320;28;20193;-85
2022/10/15 00:46:30;;;;;;;0.53;0.50;;;17.90;84.20;18.10;95991.00;;;;5055517;28;20220;-88
2022/10/15 00:49:05;;;;;;;0.97;0.37;;;17.90;84.90;18.10;95993.00;;;;5046682;28;20295;-84
2022/10/15 00:51:39;;;;;;;0.30;0.30;;;17.90;84.20;18.10;95981.00;;;;5056601;28;20231;-84
2022/10/15 00:54:07;;;;;;;0.40;0.40;;;17.80;84.20;18.10;95987.00;;;;5043074;28;20308;-83
2022/10/15 00:56:37;;;;;;;0.93;0.30;;;17.80;84.30;18.00;95983.00;;;;5048735;28;20559;-84
2022/10/15 00:59:06;;;;;;;0.40;0.40;;;17.80;85.20;18.00;95975.00;;;;5047668;28;20741;-84
2022/10/15 01:01:34;;;;;;;1.00;0.50;;;17.80;84.40;17.90;95975.00;;;;5052830;28;20322;-84
2022/10/15 01:04:04;;;;;;;0.70;0.70;;;17.80;84.40;17.90;95958.00;;;;5043646;28;20655;-85
2022/10/15 01:06:31;;;;;;;0.90;0.90;;;17.70;84.40;17.80;95949.00;;;;5041606;28;20225;-84
2022/10/15 01:08:59;;;;;;;2.17;1.30;;;17.70;84.60;17.80;95948.00;;;;5045767;28;20684;-84
2022/10/15 01:11:42;;;;;;;0.50;0.50;;;17.70;84.70;17.80;95951.00;;;;5048114;28;20214;-83
2022/10/15 01:14:28;;;;;;;0.67;0.53;;;17.70;85.10;17.80;95949.00;;;;5043634;28;20198;-83
2022/10/15 01:17:00;;;;;;;1.57;1.47;;;17.60;85.10;17.70;95943.00;;;;5045226;28;20279;-84
2022/10/15 01:20:11;;;;;;;1.30;1.20;;;17.60;85.10;17.70;95944.00;;;;5040787;28;20225;-83
2022/10/15 01:23:01;;;;;;;0.60;0.60;;;17.60;85.60;17.80;95945.00;;;;5040084;28;20224;-83
2022/10/15 01:25:46;;;;;;;0.60;0.60;;;17.60;85.60;17.80;95950.00;;;;5041157;28;20573;-84
2022/10/15 01:28:28;;;;;;;0.60;0.47;;;17.60;85.80;17.80;95942.00;;;;5044367;28;20232;-83
2022/10/15 01:31:01;;;;;;;0.40;0.40;;;17.60;86.00;17.80;95948.00;;;;5041028;28;20227;-82
2022/10/15 01:33:40;;;;;;;0.30;0.30;;;17.60;86.10;17.90;95927.00;;;;5049678;28;20190;-82
2022/10/15 01:36:18;;;;;;;0.87;0.60;;;17.60;86.30;17.90;95932.00;;;;5041448;28;20283;-84
2022/10/15 01:38:57;;;;;;;1.37;0.60;;;17.60;86.30;17.90;95927.00;;;;5044279;28;20279;-83
2022/10/15 01:41:32;;;;;;;0.30;0.30;;;17.60;86.30;17.80;95921.00;;;;5043599;28;20728;-85
2022/10/15 01:44:04;;;;;;;0.70;0.70;;;17.60;86.10;17.90;95920.00;;;;5049290;28;20274;-83
2022/10/15 01:46:41;;;;;;;0.50;0.40;;;17.60;86.20;17.90;95920.00;;;;5048787;28;20632;-82
2022/10/15 01:49:13;;;;;;;0.40;0.40;;;17.60;86.30;17.80;95915.00;;;;5049859;28;20210;-83
2022/10/15 01:51:43;;;;;;;0.47;0.47;;;17.60;86.20;17.80;95914.00;;;;5044136;28;20640;-83
2022/10/15 01:54:18;;;;;;;0.90;0.50;;;17.60;86.30;17.80;95914.00;;;;5041489;28;20193;-82
2022/10/15 01:56:48;;;;;;;0.40;0.40;;;17.60;86.30;17.80;95912.00;;;;5040687;28;20291;-86
2022/10/15 01:59:18;;;;;;;0.53;0.40;;;17.60;86.40;17.80;95914.00;;;;5046641;28;20204;-84
2022/10/15 02:01:47;;;;;;;1.00;0.40;;;17.60;86.50;17.80;95912.00;;;;5042602;28;20300;-83
2022/10/15 02:04:21;;;;;;;0.40;0.40;;;17.60;86.70;17.80;95904.00;;;;5048052;28;20283;-84
2022/10/15 02:06:56;;;;;;;0.33;0.33;;;17.60;86.80;17.80;95903.00;;;;5049771;28;20597;-84
2022/10/15 02:09:37;;;;;;;0.60;0.50;;;17.60;86.80;17.80;95892.00;;;;5050821;28;20854;-84
2022/10/15 02:12:20;;;;;;;0.93;0.50;;;17.60;86.90;17.80;95892.00;;;;5039818;28;20235;-84
2022/10/15 02:15:00;;;;;;;0.30;0.30;;;17.60;86.80;17.80;95896.00;;;;5045429;28;20745;-83
2022/10/15 02:17:38;;;;;;;0.60;0.30;;;17.60;87.50;17.80;95896.00;;;;5044619;28;20204;-83
2022/10/15 02:20:14;;;;;;;2.10;0.40;;;17.60;86.90;17.80;95892.00;;;;5050054;28;20311;-84
2022/10/15 02:22:50;;;;;;;0.50;0.50;;;17.60;86.90;17.80;95892.00;;;;5047396;28;20219;-85
2022/10/15 02:25:22;;;;;;;0.50;0.50;;;17.60;86.90;17.80;95885.00;;;;5041844;28;20280;-84
2022/10/15 02:27:53;;;;;;;1.10;0.43;;;17.60;87.00;17.80;95884.00;;;;5040191;28;20209;-83
2022/10/15 02:30:21;;;;;;;0.60;0.60;;;17.60;87.10;17.80;95877.00;;;;5041473;28;20229;-84
2022/10/15 02:32:54;;;;;;;1.87;0.90;;;17.60;87.20;17.80;95879.00;;;;5036829;28;20597;-84
2022/10/15 02:35:23;;;;;;;0.60;0.50;;;17.60;87.30;17.80;95878.00;;;;5045395;28;20208;-84
2022/10/15 02:37:55;;;;;;;0.60;0.57;;;17.60;87.30;17.80;95870.00;;;;5041538;28;20575;-85
2022/10/15 02:40:28;;;;;;;0.63;0.63;;;17.60;87.30;17.80;95869.00;;;;5046684;28;20255;-84
2022/10/15 02:42:55;;;;;;;1.33;0.50;;;17.60;87.30;17.80;95867.00;;;;5040416;28;20289;-84
2022/10/15 02:45:23;;;;;;;0.50;0.40;;;17.60;87.40;17.80;95870.00;;;;5052646;28;20284;-85
2022/10/15 02:47:51;;;;;;;0.60;0.57;;;17.60;87.50;17.80;95874.00;;;;5047487;28;20674;-84
2022/10/15 02:50:18;;;;;;;0.60;0.50;;;17.60;87.50;17.80;95866.00;;;;5054083;28;20228;-83
2022/10/15 02:52:45;;;;;;;0.50;0.50;;;17.60;87.50;17.80;95865.00;;;;5051465;28;20291;-84
2022/10/15 02:55:12;;;;;;;0.77;0.57;;;17.60;87.50;17.90;95868.00;;;;5047129;28;20690;-86
2022/10/15 02:57:39;;;;;;;1.13;0.40;;;17.60;87.60;17.90;95860.00;;;;5048588;28;20288;-84
2022/10/15 03:00:09;;;;;;;0.50;0.50;;;17.60;87.70;17.90;95864.00;;;;5043794;28;20688;-84
2022/10/15 03:02:36;;;;;;;0.60;0.47;;;17.60;87.70;17.90;95855.00;;;;5035685;28;20655;-84
2022/10/15 03:05:05;;;;;;;0.47;0.43;;;17.60;87.70;17.90;95855.00;;;;5042344;28;20288;-86
2022/10/15 03:07:32;;;;;;;0.27;0.27;;;17.60;87.70;17.90;95856.00;;;;5036097;28;20569;-84
2022/10/15 03:09:59;;;;;;;0.40;0.40;;;17.60;87.60;17.90;95854.00;;;;5049254;28;20327;-85
2022/10/15 03:12:26;;;;;;;1.10;0.40;;;17.60;87.70;17.90;95851.00;;;;5044782;28;20207;-83
2022/10/15 03:14:53;;;;;;;0.60;0.40;;;17.60;87.70;17.90;95850.00;;;;5048305;28;20567;-86
2022/10/15 03:17:20;;;;;;;1.03;0.47;;;17.60;87.70;17.90;95864.00;;;;5047628;28;20368;-84
2022/10/15 03:19:47;;;;;;;0.40;0.40;;;17.60;87.70;17.90;95850.00;;;;5049624;28;20220;-83
2022/10/15 03:22:16;;;;;;;0.47;0.43;;;17.60;87.70;17.90;95850.00;;;;5046575;28;20287;-84
2022/10/15 03:24:43;;;;;;;1.07;0.53;;;17.60;87.70;17.90;95855.00;;;;5047110;28;20198;-92
2022/10/15 03:27:10;;;;;;;0.30;0.30;;;17.60;87.70;17.90;95845.00;;;;5050259;28;20566;-83
2022/10/15 03:29:37;;;;;;;0.40;0.40;;;17.60;87.70;17.90;95844.00;;;;5050547;28;20224;-83
2022/10/15 03:32:05;;;;;;;0.40;0.40;;;17.60;87.80;17.90;95847.00;;;;5046803;28;20205;-83
2022/10/15 03:34:32;;;;;;;0.77;0.40;;;17.60;87.90;17.90;95849.00;;;;5051116;28;20564;-83
2022/10/15 03:36:59;;;;;;;0.60;0.50;;;17.60;87.90;17.90;95848.00;;;;5044871;28;20545;-83
2022/10/15 03:39:27;;;;;;;0.40;0.40;;;17.60;88.60;17.90;95843.00;;;;5055385;28;20196;-84
2022/10/15 03:41:55;;;;;;;0.30;0.30;;;17.60;88.00;17.90;95844.00;;;;5057178;28;20219;-84
2022/10/15 03:44:22;;;;;;;0.83;0.53;;;17.60;88.00;17.90;95845.00;;;;5058184;28;20205;-84
2022/10/15 03:46:49;;;;;;;0.30;0.30;;;17.60;88.10;17.90;95854.00;;;;5055249;28;20669;-83
2022/10/15 03:49:16;;;;;;;1.20;0.40;;;17.60;88.20;18.00;95854.00;;;;5057363;28;20220;-84
2022/10/15 03:51:43;;;;;;;0.60;0.60;;;17.70;88.30;18.00;95854.00;;;;5083067;22;20671;-79
2022/10/15 03:54:10;;;;;;;0.70;0.50;;;17.70;88.30;18.00;95848.00;;;;5073755;28;20283;-80
2022/10/15 03:56:39;;;;;;;0.80;0.40;;;17.70;88.30;18.00;95846.00;;;;5076919;28;20630;-80
2022/10/15 03:59:06;;;;;;;0.67;0.50;;;17.70;88.30;18.00;95847.00;;;;5067452;28;20203;-80
2022/10/15 04:01:37;;;;;;;0.30;0.30;;;17.70;88.20;18.00;95848.00;;;;5066650;28;20257;-80
2022/10/15 04:04:04;;;;;;;0.97;0.50;;;17.70;88.30;18.00;95856.00;;;;5070222;28;20231;-80
2022/10/15 04:06:33;;;;;;;0.40;0.33;;;17.70;88.30;18.00;95852.00;;;;5077162;28;20690;-80
2022/10/15 04:09:00;;;;;;;0.73;0.30;;;17.70;88.40;18.00;95843.00;;;;5071917;28;20220;-79
2022/10/15 04:11:32;;;;;;;0.60;0.60;;;17.70;88.40;18.10;95841.00;;;;5075630;28;20294;-80
2022/10/15 04:14:03;;;;;;;1.27;0.37;;;17.70;88.50;18.10;95844.00;;;;5074640;28;20196;-79
2022/10/15 04:16:33;;;;;;;0.40;0.40;;;17.70;88.60;18.10;95843.00;;;;5066686;28;20200;-80
2022/10/15 04:19:00;;;;;;;0.33;0.33;;;17.80;88.60;18.10;95836.00;;;;5071832;28;20267;-81
2022/10/15 04:21:30;;;;;;;1.23;0.40;;;17.70;88.60;18.10;95838.00;;;;5076530;28;20232;-80
2022/10/15 04:23:57;;;;;;;0.43;0.37;;;17.80;89.40;18.10;95832.00;;;;5073087;28;20643;-80
2022/10/15 04:26:33;;;;;;;0.60;0.40;;;17.80;88.60;18.10;95834.00;;;;5074985;28;20282;-80
2022/10/15 04:29:07;;;;;;;0.40;0.40;;;17.80;88.80;18.10;95838.00;;;;5074389;28;20246;-79
2022/10/15 04:31:45;;;;;;;0.30;0.30;;;17.80;88.80;18.10;95831.00;;;;5075367;28;20703;-80
2022/10/15 04:34:12;;;;;;;0.77;0.20;;;17.80;88.80;18.10;95822.00;;;;5074192;28;20615;-80
2022/10/15 04:36:39;;;;;;;0.30;0.30;;;17.80;88.80;18.10;95821.00;;;;5072747;28;20817;-79
2022/10/15 04:39:07;;;;;;;0.40;0.40;;;17.80;88.80;18.10;95823.00;;;;5076326;28;20228;-80
2022/10/15 04:41:34;;;;;;;0.43;0.43;;;17.80;88.80;18.10;95826.00;;;;5072695;28;20223;-80
2022/10/15 04:44:07;;;;;;;0.50;0.50;;;17.80;88.80;18.20;95819.00;;;;5076042;28;20245;-80
2022/10/15 04:46:41;;;;;;;0.70;0.30;;;17.80;88.80;18.10;95823.00;;;;5072853;28;20208;-80
2022/10/15 04:49:09;;;;;;;0.30;0.30;;;17.90;89.10;18.20;95828.00;;;;5073296;28;20270;-80
2022/10/15 04:51:41;;;;;;;0.43;0.20;;;17.90;89.00;18.20;95832.00;;;;5073572;28;20219;-79
2022/10/15 04:54:16;;;;;;;0.30;0.30;;;17.90;89.10;18.20;95822.00;;;;5075579;28;20238;-80
2022/10/15 04:56:57;;;;;;;0.20;0.20;;;17.90;89.20;18.20;95827.00;;;;5073659;28;20195;-80
2022/10/15 04:59:26;;;;;;;0.37;0.20;;;17.90;89.30;18.20;95829.00;;;;5074881;28;20196;-80
2022/10/15 05:01:54;;;;;;;0.87;0.20;;;17.90;89.20;18.20;95832.00;;;;5068279;28;20246;-80
2022/10/15 05:04:24;;;;;;;0.60;0.30;;;17.90;89.30;18.20;95833.00;;;;5074877;28;20195;-79
2022/10/15 05:06:51;;;;;;;0.40;0.30;;;17.90;89.30;18.20;95833.00;;;;5074070;28;20196;-80
2022/10/15 05:09:18;;;;;;;2.80;0.40;;;17.90;89.20;18.30;95830.00;;;;5071749;28;20223;-81
2022/10/15 05:11:48;;;;;;;0.50;0.20;;;18.00;89.40;18.30;95826.00;;;;5071839;28;20250;-79
2022/10/15 05:14:15;;;;;;;0.57;0.50;;;18.00;89.40;18.30;95831.00;;;;5069340;28;20224;-79
2022/10/15 05:16:44;;;;;;;0.30;0.30;;;18.00;89.40;18.30;95832.00;;;;5071452;28;20196;-80
2022/10/15 05:19:12;;;;;;;0.30;0.30;;;18.00;89.60;18.30;95827.00;;;;5074902;28;20687;-80
2022/10/15 05:21:39;;;;;;;0.83;0.50;;;18.00;89.50;18.40;95835.00;;;;5073157;28;20200;-80
2022/10/15 05:24:07;;;;;;;0.30;0.30;;;18.00;89.50;18.30;95835.00;;;;5072528;28;20232;-79
2022/10/15 05:26:37;;;;;;;0.20;0.20;;;18.00;89.50;18.40;95838.00;;;;5073429;28;20279;-79
2022/10/15 05:29:09;;;;;;;0.67;0.30;;;18.00;89.50;18.40;95835.00;;;;5074699;28;20687;-80
2022/10/15 05:31:37;;;;;;;0.20;0.20;;;18.10;89.70;18.40;95845.00;;;;5075180;28;20222;-80
2022/10/15 05:34:08;;;;;;;0.20;0.20;;;18.10;89.70;18.40;95845.00;;;;5074081;28;20227;-80
2022/10/15 05:36:38;;;;;;;0.40;0.27;;;18.10;89.80;18.40;95856.00;;;;5070099;28;20223;-79
2022/10/15 05:39:13;;;;;;;0.20;0.20;;;18.10;90.20;18.40;95851.00;;;;5074577;28;20204;-80
2022/10/15 05:41:43;;;;;;;0.33;0.33;;;18.10;89.80;18.50;95855.00;;;;5070349;28;20196;-80
2022/10/15 05:44:10;;;;;;;0.30;0.20;;;18.10;89.80;18.50;95856.00;;;;5068844;28;20664;-79
2022/10/15 05:46:37;;;;;;;0.10;0.10;;;18.20;89.90;18.50;95858.00;;;;5068015;28;20823;-79
2022/10/15 05:49:04;;;;;;;0.20;0.20;;;18.20;90.00;18.50;95860.00;;;;5071048;28;20208;-80
2022/10/15 05:51:40;;;;;;;0.20;0.20;;;18.20;90.00;18.50;95860.00;;;;5070880;28;20303;-80
2022/10/15 05:54:11;;;;;;;0.20;0.20;;;18.20;90.00;18.50;95870.00;;;;5072118;28;20641;-79
2022/10/15 05:56:38;;;;;;;0.37;0.30;;;18.20;90.10;18.60;95866.00;;;;5071328;28;20618;-80
2022/10/15 05:59:05;;;;;;;0.17;0.17;;;18.30;90.10;18.60;95874.00;;;;5071562;28;20270;-80
2022/10/15 06:01:33;;;;;;;0.20;0.20;;;18.30;90.10;18.60;95870.00;;;;5067303;28;20282;-80
2022/10/15 06:04:02;;;;;;;0.47;0.40;;;18.30;90.20;18.70;95870.00;;;;5070997;28;20237;-81
2022/10/15 06:06:37;;;;;;;0.30;0.30;;;18.30;90.10;18.70;95884.00;;;;5068429;28;20196;-80
2022/10/15 06:09:09;;;;;;;0.40;0.40;;;18.40;90.20;18.70;95879.00;;;;5064979;28;20639;-81
2022/10/15 06:11:42;;;;;;;0.47;0.40;;;18.40;90.20;18.80;95868.00;;;;5067728;28;20252;-80
2022/10/15 06:14:10;;;;;;;0.37;0.37;;;18.40;90.10;18.80;95881.00;;;;5068092;28;20204;-81
2022/10/15 06:16:37;;;;;;;0.20;0.20;;;18.50;90.20;18.80;95889.00;;;;5070107;28;20213;-81
2022/10/15 06:19:05;;;;;;;0.23;0.23;;;18.50;90.20;18.80;95887.00;;;;5070408;28;20649;-83
2022/10/15 06:21:33;;;;;;;0.40;0.30;;;18.50;90.20;18.80;95893.00;;;;5072861;28;20200;-82
2022/10/15 06:24:03;;;;;;;0.20;0.20;;;18.50;90.20;18.90;95896.00;;;;5076490;28;20283;-83
2022/10/15 06:26:30;;;;;;;0.97;0.23;;;18.50;90.20;18.90;95901.00;;;;5078987;28;20286;-82
2022/10/15 06:28:59;;;;;;;0.30;0.30;;;18.60;90.20;19.00;95909.00;;;;5074393;28;20218;-81
2022/10/15 06:31:32;;;;;;;0.20;0.20;;;18.60;90.20;19.00;95909.00;;;;5079220;28;20220;-81
2022/10/15 06:34:02;;;;;;;0.20;0.20;;;18.60;90.20;19.00;95907.00;;;;5080423;28;20675;-82
2022/10/15 06:36:41;;;;;;;0.30;0.30;;;18.60;90.20;19.00;95915.00;;;;5072523;28;20203;-84
2022/10/15 06:39:12;;;;;;;0.90;0.30;;;18.70;90.20;19.00;95920.00;;;;5077782;28;20295;-82
2022/10/15 06:41:48;;;;;;;0.93;0.30;;;18.70;90.20;19.10;95929.00;;;;5079221;28;20206;-81
2022/10/15 06:44:25;;;;;;;0.27;0.27;;;18.70;90.20;19.10;95932.00;;;;5082058;28;20695;-82
2022/10/15 06:46:57;;;;;;;0.30;0.30;;;18.70;90.10;19.10;95948.00;;;;5078431;28;20206;-82
2022/10/15 06:49:25;;;;;;;0.20;0.20;;;18.80;90.10;19.10;95941.00;;;;5081070;28;20207;-82
2022/10/15 06:52:01;;;;;;;0.20;0.20;;;18.80;90.10;19.10;95949.00;;;;5079515;28;20264;-82
2022/10/15 06:54:34;;;;;;;0.20;0.20;;;18.80;90.10;19.10;95947.00;;;;5079044;28;20715;-82
2022/10/15 06:57:05;;;;;;;0.30;0.30;;;18.80;90.10;19.20;95962.00;;;;5072288;28;20283;-82
2022/10/15 06:59:35;;;;;;;0.30;0.20;;;18.80;90.10;19.20;95961.00;;;;5075593;28;20227;-84
2022/10/15 07:02:02;;;;;;;0.20;0.20;;;18.80;90.10;19.20;95966.00;;;;5071117;28;20223;-83
2022/10/15 07:04:34;;;;;;;0.20;0.20;;;18.80;90.10;19.20;95973.00;;;;5073420;28;20295;-83
2022/10/15 07:07:13;;;;;;;0.20;0.20;;;18.90;90.10;19.20;95975.00;;;;5077749;28;20547;-82
2022/10/15 07:09:45;;;;;;;0.20;0.20;;;18.90;90.20;19.20;95971.00;;;;5074657;28;20199;-84
2022/10/15 07:12:22;;;;;;;0.30;0.30;;;18.90;90.10;19.20;95974.00;;;;5077587;28;20330;-83
2022/10/15 07:14:54;;;;;;;0.37;0.30;;;18.90;90.10;19.20;95980.00;;;;5073908;28;20195;-83
2022/10/15 07:17:34;;;;;;;0.20;0.20;;;18.90;90.10;19.30;95984.00;;;;5077566;28;20196;-83
2022/10/15 07:20:05;;;;;;;0.37;0.30;;;18.90;90.10;19.30;95989.00;;;;5067536;28;20200;-82
2022/10/15 07:22:37;;;;;;;0.20;0.10;;;18.90;90.20;19.30;95985.00;;;;5071018;28;20221;-84
2022/10/15 07:25:15;;;;;;;0.17;0.17;;;19.00;90.20;19.30;95999.00;;;;5072362;28;20200;-82
2022/10/15 07:27:51;;;;;;;0.30;0.20;;;19.00;90.20;19.40;96006.00;;;;5073557;28;20246;-82
2022/10/15 07:30:26;;;;;;;0.30;0.27;;;19.00;90.20;19.40;96005.00;;;;5070229;28;20261;-83
2022/10/15 07:32:56;;;;;;;0.23;0.23;;;19.00;90.20;19.40;96010.00;;;;5070534;28;20226;-83
2022/10/15 07:35:28;;;;;;;0.53;0.20;;;19.00;90.20;19.50;96004.00;;;;5075201;28;20192;-83
2022/10/15 07:38:08;;;;;;;0.10;0.10;;;19.00;90.20;19.50;96011.00;;;;5073805;28;20210;-83
2022/10/15 07:40:41;;;;;;;0.27;0.23;;;19.10;90.30;19.50;96010.00;;;;5074612;28;20656;-83
2022/10/15 07:43:21;;;;;;;0.23;0.23;;;19.10;90.30;19.60;96017.00;;;;5068601;28;20211;-83
2022/10/15 07:45:52;;;;;;;0.40;0.40;;;19.20;90.30;19.60;96020.00;;;;5070728;28;20246;-83
2022/10/15 07:48:27;;;;;;;0.93;0.30;;;19.20;90.30;19.70;96024.00;;;;5077656;28;20202;-82
2022/10/15 07:51:00;;;;;;;0.40;0.40;;;19.20;90.30;19.70;96029.00;;;;5068546;28;20590;-82
2022/10/15 07:53:36;;;;;;;0.30;0.30;;;19.20;90.30;19.80;96030.00;;;;5076367;28;20216;-83
2022/10/15 07:56:09;;;;;;;1.03;0.50;;;19.30;90.30;19.80;96032.00;;;;5071598;28;20207;-83
2022/10/15 07:58:41;;;;;;;0.43;0.40;;;19.30;90.30;19.80;96040.00;;;;5073537;28;20204;-82
2022/10/15 08:01:20;;;;;;;0.30;0.30;;;19.30;90.20;19.80;96044.00;;;;5071827;28;20204;-83
2022/10/15 08:03:51;;;;;;;0.20;0.20;;;19.30;90.20;19.90;96040.00;;;;5071012;28;20591;-83
2022/10/15 08:06:24;;;;;;;0.30;0.30;;;19.40;90.20;19.90;96039.00;;;;5073143;28;20239;-82
2022/10/15 08:09:04;;;;;;;0.53;0.50;;;19.40;90.30;19.90;96042.00;;;;5069377;28;20631;-83
2022/10/15 08:11:31;;;;;;;0.53;0.53;;;19.40;90.30;20.00;96036.00;;;;5067721;28;20228;-83
2022/10/15 08:14:06;;;;;;;0.20;0.20;;;19.50;90.30;20.00;96056.00;;;;5073472;28;20640;-82
2022/10/15 08:16:39;;;;;;;0.87;0.40;;;19.50;90.30;20.10;96042.00;;;;5064740;28;20199;-82
2022/10/15 08:19:07;;;;;;;0.20;0.20;;;19.50;90.30;20.10;96041.00;;;;5067659;28;20250;-82
2022/10/15 08:21:34;;;;;;;1.27;0.30;;;19.60;90.20;20.10;96051.00;;;;5075562;28;20207;-82
2022/10/15 08:24:03;;;;;;;0.47;0.20;;;19.60;90.20;20.10;96064.00;;;;5068904;28;20250;-82
2022/10/15 08:26:30;;;;;;;0.53;0.20;;;19.60;90.10;20.20;96060.00;;;;5075519;28;20199;-82
2022/10/15 08:28:57;;;;;;;0.30;0.30;;;19.60;90.10;20.20;96064.00;;;;5073570;28;20192;-82
2022/10/15 08:31:27;;;;;;;0.53;0.27;;;19.70;90.10;20.20;96073.00;;;;5073445;28;20224;-82
2022/10/15 08:33:56;;;;;;;0.30;0.30;;;19.70;90.10;20.30;96081.00;;;;5070799;28;20204;-83
2022/10/15 08:36:34;;;;;;;0.20;0.20;;;19.70;90.10;20.30;96079.00;;;;5063967;28;20251;-82
2022/10/15 08:39:08;;;;;;;0.30;0.30;;;19.80;90.10;20.30;96088.00;;;;5073817;28;20200;-82
2022/10/15 08:41:42;;;;;;;0.40;0.30;;;19.80;90.00;20.30;96090.00;;;;5075122;28;20202;-83
2022/10/15 08:44:22;;;;;;;0.30;0.30;;;19.80;90.00;20.30;96093.00;;;;5070135;28;20657;-83
2022/10/15 08:47:03;;;;;;;0.20;0.20;;;19.80;90.00;20.40;96100.00;;;;5075439;28;20237;-83
2022/10/15 08:49:50;;;;;;;0.20;0.20;;;19.80;90.00;20.40;96106.00;;;;5075287;28;20207;-82
2022/10/15 08:52:29;;;;;;;1.50;0.30;;;19.80;89.90;20.40;96109.00;;;;5073543;28;20609;-82
2022/10/15 08:55:02;;;;;;;0.10;0.10;;;19.80;89.60;20.40;96117.00;;;;5068889;28;20575;-82
2022/10/15 08:57:47;;;;;;;0.20;0.20;;;19.90;89.60;20.40;96123.00;;;;5069016;28;20553;-82
2022/10/15 09:00:21;;;;;;;0.17;0.17;;;19.90;89.70;20.40;96117.00;;;;5073074;28;20661;-82
2022/10/15 09:03:02;;;;;;;0.10;0.10;;;19.90;89.70;20.40;96115.00;;;;5070810;28;20637;-82
2022/10/15 09:05:43;;;;;;;0.20;0.20;;;19.90;89.80;20.40;96116.00;;;;5073662;28;20200;-82
2022/10/15 09:08:38;;;;;;;0.20;0.20;;;19.90;89.80;20.40;96112.00;;;;5076057;28;20213;-82
2022/10/15 09:11:19;;;;;;;0.23;0.23;;;20.00;90.00;20.50;96134.00;;;;5069231;28;20255;-82
2022/10/15 09:13:53;;;;;;;0.30;0.20;;;20.00;89.90;20.50;96128.00;;;;5071782;28;20245;-82
2022/10/15 09:16:27;;;;;;;0.30;0.30;;;20.00;90.00;20.50;96131.00;;;;5075085;28;20197;-82
2022/10/15 09:19:01;;;;;;;0.10;0.10;;;20.00;89.90;20.60;96133.00;;;;5074537;28;20266;-82
2022/10/15 09:21:29;;;;;;;0.20;0.20;;;20.00;89.80;20.60;96136.00;;;;5065159;28;20224;-81
2022/10/15 09:24:01;;;;;;;0.30;0.30;;;20.00;89.70;20.60;96134.00;;;;5071997;28;20679;-83
2022/10/15 09:26:43;;;;;;;1.30;0.50;;;20.10;89.70;20.60;96136.00;;;;5075161;28;20216;-82
2022/10/15 09:29:21;;;;;;;1.10;0.30;;;20.10;89.60;20.60;96144.00;;;;5073141;28;20232;-82
2022/10/15 09:31:56;;;;;;;0.20;0.10;;;20.10;89.40;20.60;96145.00;;;;5075958;28;20223;-82
2022/10/15 09:37:00;;;;;;;0.20;0.20;;;20.20;89.00;20.60;96149.00;;;;5066687;22;20969;-85
2022/10/15 09:39:43;;;;;;;0.37;0.20;;;20.20;89.00;20.60;96145.00;;;;5046560;28;20272;-85
2022/10/15 09:42:27;;;;;;;0.30;0.30;;;20.20;88.70;20.60;96159.00;;;;5022514;28;20298;-87
2022/10/15 09:44:59;;;;;;;0.20;0.10;;;20.20;88.80;20.70;96150.00;;;;5029909;28;20289;-86
2022/10/15 09:47:30;;;;;;;0.20;0.20;;;20.20;88.60;20.70;96150.00;;;;5019780;28;20275;-85
2022/10/15 09:52:48;;;;;;;0.10;0.10;;;20.20;88.50;20.70;96142.00;;;;5010350;28;20797;-83
2022/10/15 09:55:42;;;;;;;0.10;0.10;;;20.20;88.50;20.80;96147.00;;;;5020673;28;20288;-83
2022/10/15 09:58:18;;;;;;;0.00;0.00;;;20.30;88.60;20.90;96142.00;;;;5024522;28;20282;-83
2022/10/15 10:01:02;;;;;;;0.37;0.37;;;20.30;88.70;21.00;96142.00;;;;5025400;28;20911;-83
2022/10/15 10:03:35;;;;;;;0.30;0.30;;;20.40;89.10;21.10;96158.00;;;;5026204;28;20225;-86
2022/10/15 10:06:09;;;;;;;0.30;0.30;;;20.40;89.30;21.10;96140.00;;;;5028282;28;20194;-85
2022/10/15 10:08:40;;;;;;;0.20;0.20;;;20.50;88.60;21.20;96150.00;;;;5028649;28;20262;-83
2022/10/15 10:11:11;;;;;;;0.13;0.13;;;20.50;88.50;21.20;96152.00;;;;5018953;28;20281;-84
2022/10/15 10:13:45;;;;;;;0.10;0.10;;;20.60;88.00;21.20;96144.00;;;;5017556;28;20219;-83
2022/10/15 10:16:22;;;;;;;0.10;0.10;;;20.60;87.00;21.20;96152.00;;;;5020268;28;20196;-83
2022/10/15 10:19:15;;;;;;;0.17;0.10;;;20.70;86.70;21.30;96136.00;;;;5020678;28;20225;-84
2022/10/15 10:21:47;;;;;;;0.63;0.30;;;20.70;86.30;21.30;96124.00;;;;5022003;28;20607;-84
2022/10/15 10:24:22;;;;;;;0.10;0.10;;;20.70;86.50;21.40;96133.00;;;;5016862;28;20200;-84
2022/10/15 10:26:52;;;;;;;0.10;0.10;;;20.80;86.90;21.40;96142.00;;;;5022524;28;20255;-84
2022/10/15 10:29:25;;;;;;;0.10;0.10;;;20.80;86.30;21.50;96144.00;;;;5019957;28;20292;-83
2022/10/15 10:31:53;;;;;;;0.10;0.10;;;20.90;85.50;21.60;96146.00;;;;5020673;28;20229;-83
2022/10/15 10:34:29;;;;;;;0.10;0.10;;;20.90;85.50;21.60;96153.00;;;;5020604;28;20290;-83
2022/10/15 10:36:59;;;;;;;0.30;0.30;;;21.00;85.00;21.70;96150.00;;;;5019875;28;20287;-83
2022/10/15 10:39:29;;;;;;;4.13;0.40;;;21.00;85.50;21.70;96154.00;;;;5022049;28;20208;-83
2022/10/15 10:41:59;;;;;;;0.40;0.10;;;21.10;84.90;21.70;96156.00;;;;5018362;28;20217;-84
2022/10/15 10:44:32;;;;;;;0.10;0.00;;;21.10;85.00;21.80;96163.00;;;;5016773;28;20685;-82
2022/10/15 10:47:12;;;;;;;0.20;0.10;;;21.20;84.30;21.90;96159.00;;;;5017231;28;20280;-84
2022/10/15 10:49:43;;;;;;;0.10;0.10;;;21.20;83.40;21.90;96167.00;;;;5020829;28;20193;-84
2022/10/15 10:52:26;;;;;;;0.10;0.10;;;21.30;83.80;21.90;96160.00;;;;5021657;28;20655;-83
2022/10/15 10:55:01;;;;;;;0.40;0.30;;;21.30;83.20;21.90;96165.00;;;;5020868;28;20217;-84
2022/10/15 10:57:43;;;;;;;0.30;0.20;;;21.30;82.80;21.90;96163.00;;;;5020115;28;20193;-84
2022/10/15 11:00:19;;;;;;;0.87;0.10;;;21.40;82.90;21.90;96165.00;;;;5022979;28;20740;-83
2022/10/15 11:02:47;;;;;;;0.47;0.23;;;21.40;82.80;21.90;96169.00;;;;5022295;28;20283;-84
2022/10/15 11:05:19;;;;;;;0.10;0.10;;;21.40;83.10;22.00;96167.00;;;;5023490;28;20658;-83
2022/10/15 11:07:56;;;;;;;0.00;0.00;;;21.40;82.90;22.00;96170.00;;;;5028527;28;20209;-83
2022/10/15 11:10:32;;;;;;;0.10;0.10;;;21.40;82.80;22.00;96171.00;;;;5023055;28;20914;-82
2022/10/15 11:13:18;;;;;;;0.10;0.10;;;21.40;82.60;22.00;96172.00;;;;5025004;28;20237;-83
2022/10/15 11:15:57;;;;;;;1.80;0.20;;;21.40;82.60;22.10;96168.00;;;;5025783;28;20288;-82
2022/10/15 11:18:48;;;;;;;0.20;0.20;;;21.50;82.50;22.10;96171.00;;;;5024749;28;20264;-84
2022/10/15 11:21:26;;;;;;;0.20;0.20;;;21.50;81.90;22.10;96162.00;;;;5028171;28;20673;-83
2022/10/15 11:24:11;;;;;;;0.10;0.10;;;21.50;82.10;22.20;96174.00;;;;5023824;28;20201;-84